createdAt,value
2022-08-23T00:01:58.768Z,101505.39
2022-08-23T00:04:34.957Z,101502.54
2022-08-23T00:07:05.759Z,101502.15
2022-08-23T00:09:34.423Z,101470.73
2022-08-23T00:12:18.286Z,101495.80
2022-08-23T00:14:49.190Z,101493.51
2022-08-23T00:17:33.262Z,101493.98
2022-08-23T00:20:08.268Z,101478.56
2022-08-23T00:22:37.261Z,101492.51
2022-08-23T00:25:07.652Z,101493.55
2022-08-23T00:27:36.656Z,101491.14
2022-08-23T00:30:09.123Z,101487.31
2022-08-23T00:32:39.190Z,101487.02
2022-08-23T00:35:09.647Z,101490.71
2022-08-23T00:37:39.165Z,101488.57
2022-08-23T00:40:10.129Z,101488.37
2022-08-23T00:43:11.001Z,101481.02
2022-08-23T00:46:11.033Z,101490.01
2022-08-23T00:48:40.331Z,101485.27
2022-08-23T00:51:14.755Z,101490.08
2022-08-23T00:53:47.981Z,101487.48
2022-08-23T00:56:18.032Z,101482.40
2022-08-23T00:58:47.239Z,101481.02
2022-08-23T01:01:16.143Z,101485.87
2022-08-23T01:04:04.022Z,101492.08
2022-08-23T01:07:03.024Z,101490.14
2022-08-23T01:09:31.300Z,101488.95
2022-08-23T01:12:32.397Z,101487.31
2022-08-23T01:15:09.257Z,101487.48
2022-08-23T01:17:46.417Z,101487.00
2022-08-23T01:20:22.296Z,101490.90
2022-08-23T01:23:24.705Z,101493.03
2022-08-23T01:25:53.221Z,101492.94
2022-08-23T01:28:21.637Z,101492.17
2022-08-23T01:30:50.152Z,101493.92
2022-08-23T01:33:20.265Z,101499.50
2022-08-23T01:35:53.656Z,101495.89
2022-08-23T01:38:23.988Z,101479.21
2022-08-23T01:40:53.589Z,101499.11
2022-08-23T01:43:23.179Z,101502.92
2022-08-23T01:45:54.538Z,101503.48
2022-08-23T01:48:24.957Z,101502.20
2022-08-23T01:50:53.348Z,101507.71
2022-08-23T01:53:21.685Z,101502.39
2022-08-23T01:55:51.160Z,101500.52
2022-08-23T01:58:21.576Z,101499.55
2022-08-23T02:00:49.872Z,101501.27
2022-08-23T02:03:19.728Z,101493.95
2022-08-23T02:05:48.225Z,101497.95
2022-08-23T02:08:35.048Z,101498.36
2022-08-23T02:11:12.713Z,101501.31
2022-08-23T02:13:45.258Z,101509.66
2022-08-23T02:16:22.265Z,101510.70
2022-08-23T02:18:51.731Z,101512.98
2022-08-23T02:21:20.174Z,101515.13
2022-08-23T02:23:49.040Z,101515.15
2022-08-23T02:26:18.150Z,101517.27
2022-08-23T02:28:50.294Z,101515.48
2022-08-23T02:31:19.456Z,101510.98
2022-08-23T02:33:48.702Z,101517.82
2022-08-23T02:38:51.654Z,101516.39
2022-08-23T02:41:19.881Z,101514.80
2022-08-23T02:43:52.249Z,101517.84
2022-08-23T02:46:21.533Z,101513.20
2022-08-23T02:48:49.977Z,101508.68
2022-08-23T02:51:18.909Z,101508.41
2022-08-23T02:53:47.046Z,101508.30
2022-08-23T02:56:21.628Z,101508.95
2022-08-23T02:58:54.569Z,101509.02
2022-08-23T03:01:28.847Z,101508.42
2022-08-23T03:04:00.927Z,101512.86
2022-08-23T03:06:29.948Z,101517.62
2022-08-23T03:08:58.482Z,101515.73
2022-08-23T03:11:26.700Z,101524.10
2022-08-23T03:13:56.511Z,101523.15
2022-08-23T03:16:25.072Z,101521.32
2022-08-23T03:18:53.323Z,101520.55
2022-08-23T03:21:22.676Z,101521.48
2022-08-23T03:23:51.604Z,101519.94
2022-08-23T03:26:20.113Z,101524.52
2022-08-23T03:28:48.520Z,101529.18
2022-08-23T03:31:18.075Z,101523.79
2022-08-23T03:34:03.768Z,101520.14
2022-08-23T03:36:32.546Z,101520.14
2022-08-23T03:39:00.927Z,101516.95
2022-08-23T03:41:29.443Z,101520.23
2022-08-23T03:43:57.739Z,101518.98
2022-08-23T03:46:27.092Z,101522.58
2022-08-23T03:49:01.664Z,101526.85
2022-08-23T03:51:34.663Z,101521.92
2022-08-23T03:54:03.669Z,101519.27
2022-08-23T03:56:35.630Z,101518.80
2022-08-23T03:59:09.608Z,101520.77
2022-08-23T04:01:37.893Z,101522.45
2022-08-23T04:04:06.349Z,101526.54
2022-08-23T04:06:35.552Z,101526.46
2022-08-23T04:09:04.360Z,101528.92
2022-08-23T04:11:33.073Z,101532.50
2022-08-23T04:14:06.492Z,101532.73
2022-08-23T04:16:37.878Z,101534.02
2022-08-23T04:19:13.346Z,101533.80
2022-08-23T04:21:52.724Z,101532.91
2022-08-23T04:24:20.928Z,101528.42
2022-08-23T04:26:49.656Z,101528.58
2022-08-23T04:29:33.739Z,101511.59
2022-08-23T04:32:05.699Z,101535.77
2022-08-23T04:34:38.364Z,101541.91
2022-08-23T04:37:10.120Z,101539.80
2022-08-23T04:39:57.288Z,101539.94
2022-08-23T04:42:26.333Z,101541.42
2022-08-23T04:44:55.020Z,101538.09
2022-08-23T04:47:24.115Z,101536.17
2022-08-23T04:49:53.105Z,101530.09
2022-08-23T04:52:21.269Z,101536.33
2022-08-23T04:54:50.301Z,101534.52
2022-08-23T04:57:42.692Z,101532.39
2022-08-23T05:00:16.613Z,101528.73
2022-08-23T05:02:51.118Z,101520.35
2022-08-23T05:05:20.931Z,101520.72
2022-08-23T05:07:49.495Z,101523.95
2022-08-23T05:10:17.847Z,101529.77
2022-08-23T05:12:49.214Z,101536.05
2022-08-23T05:15:18.247Z,101537.19
2022-08-23T05:17:48.339Z,101539.15
2022-08-23T05:20:17.823Z,101535.88
2022-08-23T05:22:46.559Z,101538.50
2022-08-23T05:25:22.699Z,101537.95
2022-08-23T05:27:51.647Z,101538.09
2022-08-23T05:30:19.814Z,101536.41
2022-08-23T05:32:48.286Z,101535.63
2022-08-23T05:35:16.527Z,101520.05
2022-08-23T05:37:45.466Z,101530.94
2022-08-23T05:40:14.592Z,101530.16
2022-08-23T05:42:54.627Z,101524.59
2022-08-23T05:45:22.853Z,101529.44
2022-08-23T05:47:51.498Z,101528.06
2022-08-23T05:50:38.376Z,101531.69
2022-08-23T05:53:07.789Z,101525.80
2022-08-23T05:55:36.281Z,101523.22
2022-08-23T05:58:18.248Z,101523.36
2022-08-23T06:00:46.683Z,101524.61
2022-08-23T06:03:15.197Z,101526.55
2022-08-23T06:05:43.542Z,101532.23
2022-08-23T06:08:12.783Z,101536.02
2022-08-23T06:10:42.507Z,101541.01
2022-08-23T06:13:25.803Z,101543.48
2022-08-23T06:15:54.436Z,101546.41
2022-08-23T06:18:24.630Z,101547.42
2022-08-23T06:21:10.334Z,101553.45
2022-08-23T06:23:49.721Z,101555.48
2022-08-23T06:26:22.469Z,101555.58
2022-08-23T06:28:54.536Z,101557.59
2022-08-23T06:31:43.238Z,101557.02
2022-08-23T06:34:18.503Z,101559.77
2022-08-23T06:37:15.135Z,101556.40
2022-08-23T06:40:01.817Z,101561.39
2022-08-23T06:42:48.510Z,101564.57
2022-08-23T06:45:33.782Z,101566.25
2022-08-23T06:48:04.133Z,101569.87
2022-08-23T06:50:32.929Z,101574.20
2022-08-23T06:53:19.521Z,101579.66
2022-08-23T06:56:07.908Z,101581.59
2022-08-23T06:59:06.921Z,101584.14
2022-08-23T07:01:56.958Z,101583.04
2022-08-23T07:04:36.342Z,101582.38
2022-08-23T07:07:09.495Z,101577.86
2022-08-23T07:09:41.286Z,101573.30
2022-08-23T07:12:09.437Z,101573.78
2022-08-23T07:14:40.085Z,101575.39
2022-08-23T07:17:09.778Z,101579.95
2022-08-23T07:19:38.178Z,101560.64
2022-08-23T07:22:20.746Z,101575.23
2022-08-23T07:24:48.922Z,101572.95
2022-08-23T07:27:17.210Z,101572.92
2022-08-23T07:29:53.249Z,101569.52
2022-08-23T07:32:21.877Z,101572.86
2022-08-23T07:34:51.285Z,101576.69
2022-08-23T07:37:20.909Z,101579.67
2022-08-23T07:39:49.087Z,101582.04
2022-08-23T07:42:22.737Z,101583.65
2022-08-23T07:44:53.707Z,101583.08
2022-08-23T07:47:23.674Z,101587.05
2022-08-23T07:49:52.709Z,101586.64
2022-08-23T07:52:21.537Z,101586.77
2022-08-23T07:54:49.965Z,101573.48
2022-08-23T07:57:36.725Z,101589.02
2022-08-23T08:00:23.551Z,101585.24
2022-08-23T08:03:00.542Z,101589.66
2022-08-23T08:05:36.679Z,101588.13
2022-08-23T08:08:05.579Z,101585.88
2022-08-23T08:10:38.448Z,101584.02
2022-08-23T08:13:08.558Z,101581.60
2022-08-23T08:15:42.074Z,101584.58
2022-08-23T08:18:12.686Z,101583.27
2022-08-23T08:21:19.562Z,101578.31
2022-08-23T08:24:14.050Z,101577.60
2022-08-23T08:26:46.598Z,101579.17
2022-08-23T08:29:15.475Z,101578.81
2022-08-23T08:31:49.509Z,101574.48
2022-08-23T08:34:20.779Z,101574.60
2022-08-23T08:36:54.852Z,101575.50
2022-08-23T08:39:31.193Z,101575.19
2022-08-23T08:42:33.761Z,101580.19
2022-08-23T08:45:07.770Z,101585.02
2022-08-23T08:47:43.970Z,101585.61
2022-08-23T08:50:41.584Z,101584.13
2022-08-23T08:53:16.606Z,101582.38
2022-08-23T08:56:16.581Z,101583.73
2022-08-23T08:58:52.949Z,101580.25
2022-08-23T09:01:24.787Z,101578.89
2022-08-23T09:03:53.997Z,101580.27
2022-08-23T09:06:42.209Z,101574.19
2022-08-23T09:09:37.039Z,101573.71
2022-08-23T09:12:16.428Z,101569.40
2022-08-23T09:15:06.161Z,101565.58
2022-08-23T09:17:54.891Z,101567.59
2022-08-23T09:20:32.806Z,101571.00
2022-08-23T09:23:13.051Z,101570.08
2022-08-23T09:25:41.946Z,101573.81
2022-08-23T09:28:16.072Z,101577.27
2022-08-23T09:30:50.361Z,101569.02
2022-08-23T09:33:27.283Z,101573.70
2022-08-23T09:36:12.769Z,101560.67
2022-08-23T09:38:54.006Z,101573.98
2022-08-23T09:41:29.482Z,101570.77
2022-08-23T09:44:02.464Z,101568.71
2022-08-23T09:46:36.000Z,101565.03
2022-08-23T09:49:22.857Z,101563.83
2022-08-23T09:51:52.435Z,101562.66
2022-08-23T09:54:32.343Z,101558.02
2022-08-23T09:57:10.388Z,101560.96
2022-08-23T09:59:44.928Z,101547.66
2022-08-23T10:02:22.511Z,101558.55
2022-08-23T10:05:01.682Z,101559.20
2022-08-23T10:07:42.611Z,101546.36
2022-08-23T10:10:26.365Z,101555.15
2022-08-23T10:12:57.155Z,101556.17
2022-08-23T10:15:52.418Z,101552.02
2022-08-23T10:18:42.696Z,101545.66
2022-08-23T10:21:35.537Z,101542.88
2022-08-23T10:24:22.681Z,101544.55
2022-08-23T10:27:41.656Z,101545.34
2022-08-23T10:30:18.508Z,101542.47
2022-08-23T10:32:50.086Z,101548.86
2022-08-23T10:35:36.529Z,101547.95
2022-08-23T10:38:24.240Z,101537.25
2022-08-23T10:41:47.712Z,101546.15
2022-08-23T10:44:35.376Z,101544.81
2022-08-23T10:47:27.412Z,101547.13
2022-08-23T10:50:00.524Z,101548.54
2022-08-23T10:52:36.208Z,101552.27
2022-08-23T10:55:17.272Z,101556.45
2022-08-23T10:57:49.246Z,101561.45
2022-08-23T11:00:22.829Z,101558.84
2022-08-23T11:03:10.029Z,101552.71
2022-08-23T11:05:39.305Z,101557.43
2022-08-23T11:08:34.377Z,101552.98
2022-08-23T11:11:04.105Z,101551.02
2022-08-23T11:13:35.425Z,101551.48
2022-08-23T11:16:03.831Z,101543.20
2022-08-23T11:18:37.988Z,101554.21
2022-08-23T11:21:33.462Z,101556.17
2022-08-23T11:24:05.280Z,101556.13
2022-08-23T11:26:38.152Z,101555.34
2022-08-23T11:29:07.441Z,101554.65
2022-08-23T11:31:47.589Z,101551.61
2022-08-23T11:34:27.296Z,101549.20
2022-08-23T11:37:18.958Z,101551.86
2022-08-23T11:39:58.076Z,101547.65
2022-08-23T11:42:48.208Z,101546.37
2022-08-23T11:45:37.710Z,101546.44
2022-08-23T11:48:20.487Z,101545.27
2022-08-23T11:50:57.602Z,101544.79
2022-08-23T11:53:44.893Z,101542.13
2022-08-23T11:56:37.144Z,101537.51
2022-08-23T11:59:17.561Z,101539.81
2022-08-23T12:01:47.231Z,101543.80
2022-08-23T12:04:51.984Z,101541.42
2022-08-23T12:07:59.985Z,101530.75
2022-08-23T12:10:43.012Z,101530.50
2022-08-23T12:13:23.154Z,101540.91
2022-08-23T12:16:19.974Z,101537.64
2022-08-23T12:18:52.979Z,101537.92
2022-08-23T12:21:39.349Z,101537.42
2022-08-23T12:24:19.167Z,101535.00
2022-08-23T12:26:59.275Z,101534.64
2022-08-23T12:29:45.439Z,101535.03
2022-08-23T12:32:25.536Z,101535.98
2022-08-23T12:35:19.174Z,101530.68
2022-08-23T12:38:02.148Z,101525.04
2022-08-23T12:40:35.253Z,101530.24
2022-08-23T12:43:22.589Z,101532.65
2022-08-23T12:45:57.924Z,101529.96
2022-08-23T12:48:33.417Z,101528.09
2022-08-23T12:51:11.368Z,101530.73
2022-08-23T12:53:45.736Z,101529.40
2022-08-23T12:56:22.835Z,101514.38
2022-08-23T12:59:05.007Z,101523.45
2022-08-23T13:01:39.174Z,101524.95
2022-08-23T13:04:11.743Z,101524.57
2022-08-23T13:06:55.518Z,101523.17
2022-08-23T13:09:33.910Z,101527.23
2022-08-23T13:12:03.314Z,101511.77
2022-08-23T13:14:40.270Z,101524.72
2022-08-23T13:17:20.253Z,101529.10
2022-08-23T13:19:52.121Z,101526.41
2022-08-23T13:22:20.265Z,101524.80
2022-08-23T13:25:32.119Z,101524.95
2022-08-23T13:28:06.341Z,101532.55
2022-08-23T13:30:39.235Z,101529.77
2022-08-23T13:33:07.875Z,101510.27
2022-08-23T13:35:44.574Z,101523.04
2022-08-23T13:38:20.124Z,101513.45
2022-08-23T13:41:05.009Z,101524.12
2022-08-23T13:43:40.182Z,101527.80
2022-08-23T13:46:11.535Z,101538.99
2022-08-23T13:48:54.695Z,101544.88
2022-08-23T13:51:38.786Z,101549.91
2022-08-23T13:54:13.372Z,101548.78
2022-08-23T13:56:45.635Z,101551.88
2022-08-23T13:59:35.583Z,101550.76
2022-08-23T14:02:09.299Z,101546.91
2022-08-23T14:04:37.577Z,101531.39
2022-08-23T14:07:06.324Z,101540.23
2022-08-23T14:09:38.293Z,101544.20
2022-08-23T14:12:17.524Z,101549.16
2022-08-23T14:14:46.728Z,101549.81
2022-08-23T14:17:15.776Z,101545.46
2022-08-23T14:22:36.118Z,101531.73
2022-08-23T14:25:05.760Z,101539.20
2022-08-23T14:27:34.743Z,101548.84
2022-08-23T14:30:05.673Z,101553.02
2022-08-23T14:32:33.981Z,101553.64
2022-08-23T14:35:02.106Z,101547.68
2022-08-23T14:40:18.978Z,101550.31
2022-08-23T14:42:47.555Z,101549.73
2022-08-23T14:45:18.285Z,101565.85
2022-08-23T14:47:46.526Z,101571.81
2022-08-23T14:50:15.869Z,101579.38
2022-08-23T14:52:46.553Z,101582.65
2022-08-23T14:55:14.866Z,101581.24
2022-08-23T14:57:43.598Z,101585.66
2022-08-23T15:00:15.622Z,101582.53
2022-08-23T15:02:46.239Z,101579.26
2022-08-23T15:05:15.695Z,101571.62
2022-08-23T15:07:44.251Z,101577.36
2022-08-23T15:10:49.940Z,101579.75
2022-08-23T15:13:20.696Z,101574.35
2022-08-23T15:15:52.955Z,101606.63
2022-08-23T15:18:21.097Z,101614.84
2022-08-23T15:20:49.566Z,101618.17
2022-08-23T15:23:21.278Z,101628.36
2022-08-23T15:25:50.298Z,101613.09
2022-08-23T15:28:21.057Z,101627.93
2022-08-23T15:30:50.274Z,101632.08
2022-08-23T15:33:23.500Z,101632.04
2022-08-23T15:35:57.298Z,101630.02
2022-08-23T15:38:26.487Z,101628.29
2022-08-23T15:40:55.232Z,101624.56
2022-08-23T15:43:30.088Z,101621.70
2022-08-23T15:46:19.323Z,101615.26
2022-08-23T15:48:58.604Z,101631.25
2022-08-23T15:51:26.748Z,101634.34
2022-08-23T15:53:56.572Z,101631.67
2022-08-23T15:56:41.687Z,101652.18
2022-08-23T15:59:13.632Z,101655.81
2022-08-23T16:01:42.332Z,101659.34
2022-08-23T16:04:11.613Z,101659.95
2022-08-23T16:06:41.553Z,101663.27
2022-08-23T16:09:18.173Z,101649.15
2022-08-23T16:11:46.704Z,101665.73
2022-08-23T16:14:15.192Z,101670.98
2022-08-23T16:16:46.912Z,101666.35
2022-08-23T16:19:16.735Z,101667.66
2022-08-23T16:21:45.169Z,101667.60
2022-08-23T16:24:13.839Z,101666.34
2022-08-23T16:26:45.512Z,101665.45
2022-08-23T16:29:17.275Z,101668.05
2022-08-23T16:31:46.737Z,101665.30
2022-08-23T16:34:18.247Z,101665.73
2022-08-23T16:36:50.657Z,101663.02
2022-08-23T16:39:18.860Z,101655.71
2022-08-23T16:41:46.973Z,101649.90
2022-08-23T16:44:15.112Z,101657.89
2022-08-23T16:46:44.195Z,101661.62
2022-08-23T16:49:14.416Z,101672.88
2022-08-23T16:51:43.262Z,101681.26
2022-08-23T16:54:11.328Z,101692.86
2022-08-23T16:56:40.989Z,101698.94
2022-08-23T16:59:10.819Z,101705.00
2022-08-23T17:02:10.643Z,101710.98
2022-08-23T17:04:39.338Z,101712.98
2022-08-23T17:07:07.620Z,101720.10
2022-08-23T17:09:35.730Z,101729.55
2022-08-23T17:12:04.027Z,101738.08
2022-08-23T17:14:32.441Z,101730.91
2022-08-23T17:17:00.775Z,101737.39
2022-08-23T17:19:29.665Z,101766.55
2022-08-23T17:22:01.981Z,101774.07
2022-08-23T17:24:30.100Z,101785.21
2022-08-23T17:26:58.335Z,101797.19
2022-08-23T17:29:26.492Z,101804.02
2022-08-23T17:31:54.793Z,101786.70
2022-08-23T17:34:23.192Z,101799.61
2022-08-23T17:36:54.133Z,101798.95
2022-08-23T17:39:27.502Z,101799.67
2022-08-23T17:41:57.964Z,101797.23
2022-08-23T17:44:26.161Z,101786.59
2022-08-23T17:46:54.304Z,101782.21
2022-08-23T17:49:22.809Z,101783.54
2022-08-23T17:52:17.260Z,101791.56
2022-08-23T17:54:45.377Z,101793.97
2022-08-23T17:57:39.512Z,101788.91
2022-08-23T18:00:09.588Z,101785.90
2022-08-23T18:02:38.280Z,101782.04
2022-08-23T18:05:08.067Z,101772.80
2022-08-23T18:07:36.995Z,101767.77
2022-08-23T18:10:07.480Z,101768.85
2022-08-23T18:12:35.608Z,101762.70
2022-08-23T18:15:04.640Z,101754.11
2022-08-23T18:17:40.390Z,101761.64
2022-08-23T18:20:11.139Z,101753.48
2022-08-23T18:22:39.976Z,101751.89
2022-08-23T18:25:10.229Z,101748.89
2022-08-23T18:27:57.147Z,101739.95
2022-08-23T18:30:25.577Z,101739.08
2022-08-23T18:32:53.848Z,101733.67
2022-08-23T18:35:22.355Z,101733.88
2022-08-23T18:37:50.512Z,101726.41
2022-08-23T18:40:19.191Z,101718.73
2022-08-23T18:43:18.035Z,101705.60
2022-08-23T18:45:48.267Z,101694.23
2022-08-23T18:48:17.283Z,101694.50
2022-08-23T18:50:46.516Z,101691.73
2022-08-23T18:53:14.788Z,101676.53
2022-08-23T18:55:43.335Z,101696.44
2022-08-23T18:58:11.596Z,101706.29
2022-08-23T19:00:39.835Z,101714.20
2022-08-23T19:03:08.785Z,101717.70
2022-08-23T19:05:42.282Z,101722.82
2022-08-23T19:08:11.950Z,101722.89
2022-08-23T19:10:42.077Z,101732.98
2022-08-23T19:13:35.173Z,101733.36
2022-08-23T19:16:06.628Z,101739.55
2022-08-23T19:18:35.895Z,101746.85
2022-08-23T19:21:04.651Z,101745.17
2022-08-23T19:23:33.119Z,101733.27
2022-08-23T19:26:13.114Z,101753.15
2022-08-23T19:28:42.099Z,101752.46
2022-08-23T19:31:11.461Z,101753.23
2022-08-23T19:33:40.531Z,101755.88
2022-08-23T19:36:23.665Z,101755.71
2022-08-23T19:38:57.375Z,101757.45
2022-08-23T19:41:25.638Z,101759.35
2022-08-23T19:43:54.354Z,101762.29
2022-08-23T19:46:22.847Z,101756.62
2022-08-23T19:48:51.528Z,101751.82
2022-08-23T19:51:20.715Z,101748.21
2022-08-23T19:54:04.720Z,101748.75
2022-08-23T19:56:46.948Z,101753.51
2022-08-23T19:59:21.810Z,101749.13
2022-08-23T20:01:50.493Z,101735.19
2022-08-23T20:04:19.771Z,101728.27
2022-08-23T20:06:49.144Z,101734.02
2022-08-23T20:09:42.204Z,101737.85
2022-08-23T20:12:11.612Z,101736.89
2022-08-23T20:14:39.704Z,101735.02
2022-08-23T20:17:07.952Z,101741.27
2022-08-23T20:19:41.198Z,101738.25
2022-08-23T20:22:28.070Z,101743.04
2022-08-23T20:24:56.152Z,101745.39
2022-08-23T20:27:30.870Z,101741.78
2022-08-23T20:30:01.686Z,101737.55
2022-08-23T20:32:31.780Z,101737.23
2022-08-23T20:35:01.873Z,101748.26
2022-08-23T20:37:30.512Z,101754.95
2022-08-23T20:39:58.939Z,101760.14
2022-08-23T20:42:27.326Z,101764.27
2022-08-23T20:44:55.885Z,101769.20
2022-08-23T20:47:24.432Z,101768.54
2022-08-23T20:49:52.597Z,101764.79
2022-08-23T20:52:20.705Z,101770.46
2022-08-23T20:54:48.981Z,101778.96
2022-08-23T20:57:17.151Z,101785.55
2022-08-23T20:59:45.418Z,101788.11
2022-08-23T21:02:13.769Z,101788.79
2022-08-23T21:04:41.896Z,101788.58
2022-08-23T21:07:10.077Z,101783.14
2022-08-23T21:09:38.169Z,101783.20
2022-08-23T21:12:06.769Z,101779.58
2022-08-23T21:14:35.306Z,101773.75
2022-08-23T21:17:03.585Z,101770.38
2022-08-23T21:19:31.767Z,101772.85
2022-08-23T21:22:00.232Z,101771.70
2022-08-23T21:24:28.539Z,101768.27
2022-08-23T21:26:56.647Z,101763.06
2022-08-23T21:29:24.787Z,101761.05
2022-08-23T21:31:54.013Z,101761.14
2022-08-23T21:34:22.171Z,101761.79
2022-08-23T21:36:51.532Z,101759.69
2022-08-23T21:39:19.692Z,101765.58
2022-08-23T21:41:48.550Z,101768.25
2022-08-23T21:44:20.330Z,101770.83
2022-08-23T21:46:49.192Z,101749.37
2022-08-23T21:49:42.344Z,101761.92
2022-08-23T21:52:10.419Z,101769.10
2022-08-23T21:54:43.306Z,101776.45
2022-08-23T21:57:37.411Z,101777.93
2022-08-23T22:00:30.445Z,101782.95
2022-08-23T22:03:02.533Z,101785.02
2022-08-23T22:05:31.930Z,101781.80
2022-08-23T22:08:00.040Z,101780.16
2022-08-23T22:10:28.429Z,101784.55
2022-08-23T22:12:57.347Z,101781.53
2022-08-23T22:15:26.004Z,101778.83
2022-08-23T22:17:54.109Z,101765.60
2022-08-23T22:20:47.116Z,101775.79
2022-08-23T22:23:15.260Z,101777.83
2022-08-23T22:26:08.406Z,101778.46
2022-08-23T22:28:36.826Z,101772.32
2022-08-23T22:31:06.988Z,101767.70
2022-08-23T22:33:35.347Z,101760.68
2022-08-23T22:36:16.650Z,101754.91
2022-08-23T22:38:46.058Z,101750.21
2022-08-23T22:41:19.605Z,101754.99
2022-08-23T22:43:48.166Z,101749.20
2022-08-23T22:46:16.872Z,101744.30
2022-08-23T22:48:45.546Z,101748.16
2022-08-23T22:51:18.337Z,101752.72
2022-08-23T22:53:51.442Z,101758.02
2022-08-23T22:56:22.944Z,101751.44
2022-08-23T22:58:53.558Z,101762.80
2022-08-23T23:01:26.228Z,101764.22
2022-08-23T23:03:56.604Z,101767.52
2022-08-23T23:06:25.397Z,101768.75
2022-08-23T23:09:19.515Z,101775.39
2022-08-23T23:11:48.499Z,101782.83
2022-08-23T23:14:19.294Z,101792.02
2022-08-23T23:16:49.546Z,101817.00
2022-08-23T23:19:36.831Z,101823.73
2022-08-23T23:22:07.897Z,101823.05
2022-08-23T23:24:38.757Z,101814.64
2022-08-23T23:27:07.685Z,101813.24
2022-08-23T23:30:01.299Z,101807.63
2022-08-23T23:32:29.417Z,101797.69
2022-08-23T23:34:57.910Z,101781.42
2022-08-23T23:37:55.199Z,101757.48
2022-08-23T23:40:24.517Z,101757.97
2022-08-23T23:42:53.567Z,101759.67
2022-08-23T23:45:23.285Z,101763.20
2022-08-23T23:47:52.082Z,101758.14
2022-08-23T23:50:46.963Z,101749.07
2022-08-23T23:53:15.906Z,101736.76
2022-08-23T23:56:10.695Z,101734.75
2022-08-23T23:58:39.220Z,101734.07
